createdAt,value
2017-09-28T00:01:33.093Z,74.60
2017-09-28T00:04:01.431Z,74.60
2017-09-28T00:06:29.788Z,74.70
2017-09-28T00:08:58.851Z,74.70
2017-09-28T00:11:27.186Z,74.70
2017-09-28T00:13:55.513Z,74.80
2017-09-28T00:16:23.827Z,74.90
2017-09-28T00:18:52.889Z,74.90
2017-09-28T00:21:21.199Z,74.80
2017-09-28T00:23:50.273Z,74.90
2017-09-28T00:26:18.608Z,74.90
2017-09-28T00:28:46.930Z,74.90
2017-09-28T00:31:15.244Z,75.00
2017-09-28T00:33:44.331Z,74.90
2017-09-28T00:36:12.647Z,74.90
2017-09-28T00:38:40.957Z,74.90
2017-09-28T00:41:09.282Z,75.00
2017-09-28T00:43:37.609Z,75.20
2017-09-28T00:46:05.906Z,75.20
2017-09-28T00:48:34.232Z,75.00
2017-09-28T00:51:03.306Z,75.00
2017-09-28T00:53:31.606Z,75.00
2017-09-28T00:55:59.928Z,75.10
2017-09-28T00:58:28.232Z,75.20
2017-09-28T01:00:56.554Z,75.40
2017-09-28T01:03:24.882Z,76.30
2017-09-28T01:05:53.360Z,75.70
2017-09-28T01:08:21.676Z,75.40
2017-09-28T01:10:50.000Z,75.60
2017-09-28T01:13:19.062Z,75.70
2017-09-28T01:15:47.396Z,75.70
2017-09-28T01:18:15.773Z,75.60
2017-09-28T01:20:44.103Z,75.60
2017-09-28T01:23:12.434Z,75.60
2017-09-28T01:25:40.759Z,75.70
2017-09-28T01:28:09.531Z,75.70
2017-09-28T01:30:37.852Z,75.70
2017-09-28T01:33:06.164Z,75.70
2017-09-28T01:35:35.236Z,75.70
2017-09-28T01:38:03.562Z,75.80
2017-09-28T01:40:31.884Z,75.80
2017-09-28T01:43:00.190Z,75.70
2017-09-28T01:45:28.509Z,75.80
2017-09-28T01:47:56.950Z,75.40
2017-09-28T01:50:25.870Z,75.90
2017-09-28T01:52:54.956Z,76.00
2017-09-28T01:55:23.300Z,76.00
2017-09-28T01:57:51.598Z,76.00
2017-09-28T02:00:19.916Z,76.00
2017-09-28T02:02:48.242Z,76.00
2017-09-28T02:05:16.576Z,76.00
2017-09-28T02:07:45.646Z,76.10
2017-09-28T02:10:14.012Z,76.10
2017-09-28T02:12:42.433Z,76.10
2017-09-28T02:15:10.737Z,76.20
2017-09-28T02:17:39.059Z,76.10
2017-09-28T02:20:07.499Z,76.00
2017-09-28T02:22:35.814Z,76.10
2017-09-28T02:25:04.132Z,76.10
2017-09-28T02:27:32.446Z,76.10
2017-09-28T02:30:00.743Z,76.30
2017-09-28T02:32:29.058Z,76.30
2017-09-28T02:34:57.361Z,76.30
2017-09-28T02:37:25.678Z,76.20
2017-09-28T02:39:54.013Z,76.20
2017-09-28T02:42:22.317Z,76.20
2017-09-28T02:44:51.414Z,76.20
2017-09-28T02:47:20.502Z,76.90
2017-09-28T02:49:48.812Z,76.10
2017-09-28T02:52:17.887Z,76.10
2017-09-28T02:54:46.971Z,75.50
2017-09-28T02:57:15.280Z,76.10
2017-09-28T02:59:44.352Z,75.90
2017-09-28T03:02:12.698Z,75.90
2017-09-28T03:04:41.013Z,75.90
2017-09-28T03:07:09.311Z,75.80
2017-09-28T03:09:37.626Z,75.70
2017-09-28T03:12:05.938Z,75.60
2017-09-28T03:14:34.255Z,75.60
2017-09-28T03:17:02.566Z,75.60
2017-09-28T03:19:30.864Z,75.60
2017-09-28T03:21:59.162Z,75.60
2017-09-28T03:24:27.492Z,75.50
2017-09-28T03:26:56.575Z,75.40
2017-09-28T03:29:24.872Z,75.40
2017-09-28T03:31:53.962Z,76.10
2017-09-28T03:34:22.276Z,75.40
2017-09-28T03:36:50.662Z,76.40
2017-09-28T03:39:18.975Z,76.00
2017-09-28T03:41:47.273Z,76.50
2017-09-28T03:44:15.737Z,76.90
2017-09-28T03:46:44.039Z,77.20
2017-09-28T03:49:12.361Z,77.40
2017-09-28T03:51:41.446Z,78.60
2017-09-28T03:54:10.538Z,77.90
2017-09-28T03:56:38.839Z,77.80
2017-09-28T03:59:07.929Z,78.10
2017-09-28T04:01:37.003Z,78.20
2017-09-28T04:04:05.323Z,78.00
2017-09-28T04:06:33.759Z,78.10
2017-09-28T04:09:02.097Z,78.20
2017-09-28T04:11:30.422Z,78.20
2017-09-28T04:13:58.735Z,79.10
2017-09-28T04:16:27.825Z,78.80
2017-09-28T04:18:56.144Z,78.60
2017-09-28T04:21:24.458Z,78.70
2017-09-28T04:23:52.763Z,78.80
2017-09-28T04:26:21.082Z,78.90
2017-09-28T04:28:49.396Z,79.00
2017-09-28T04:31:17.695Z,79.00
2017-09-28T04:33:45.997Z,78.90
2017-09-28T04:36:14.331Z,78.80
2017-09-28T04:38:42.647Z,78.80
2017-09-28T04:41:10.964Z,78.80
2017-09-28T04:43:40.053Z,79.00
2017-09-28T04:46:09.119Z,79.10
2017-09-28T04:48:37.436Z,79.10
2017-09-28T04:51:06.595Z,79.80
2017-09-28T04:53:34.907Z,79.00
2017-09-28T04:56:03.211Z,79.00
2017-09-28T04:58:32.321Z,79.00
2017-09-28T05:01:00.654Z,79.00
2017-09-28T05:03:28.983Z,79.10
2017-09-28T05:05:57.304Z,79.10
2017-09-28T05:08:25.616Z,79.10
2017-09-28T05:10:53.937Z,79.10
2017-09-28T05:13:22.276Z,79.00
2017-09-28T05:15:50.682Z,79.00
2017-09-28T05:18:19.749Z,79.10
2017-09-28T05:20:48.099Z,79.10
2017-09-28T05:23:16.408Z,79.30
2017-09-28T05:25:44.757Z,79.40
2017-09-28T05:28:13.054Z,79.30
2017-09-28T05:30:41.359Z,79.30
2017-09-28T05:33:09.669Z,79.40
2017-09-28T05:35:38.727Z,79.50
2017-09-28T05:38:07.039Z,79.50
2017-09-28T05:40:36.105Z,79.90
2017-09-28T05:43:04.452Z,79.90
2017-09-28T05:45:32.776Z,79.90
2017-09-28T05:48:01.085Z,79.90
2017-09-28T05:50:30.919Z,80.10
2017-09-28T05:52:59.220Z,80.00
2017-09-28T05:55:27.531Z,80.00
2017-09-28T05:57:55.836Z,80.10
2017-09-28T06:00:24.154Z,80.10
2017-09-28T06:02:52.515Z,81.00
2017-09-28T06:05:21.642Z,80.40
2017-09-28T06:07:49.948Z,80.40
2017-09-28T06:10:18.295Z,80.40
2017-09-28T06:12:46.623Z,80.50
2017-09-28T06:15:14.923Z,80.70
2017-09-28T06:17:43.249Z,80.70
2017-09-28T06:20:11.558Z,80.90
2017-09-28T06:22:39.957Z,81.10
2017-09-28T06:25:08.259Z,81.30
2017-09-28T06:27:36.582Z,81.50
2017-09-28T06:30:04.892Z,81.90
2017-09-28T06:32:33.247Z,82.20
2017-09-28T06:35:01.577Z,84.90
2017-09-28T06:37:29.887Z,84.50
2017-09-28T06:39:58.975Z,84.00
2017-09-28T06:42:28.055Z,84.10
2017-09-28T06:44:56.364Z,84.00
2017-09-28T06:47:25.435Z,84.20
2017-09-28T06:49:53.761Z,84.20
2017-09-28T06:52:22.065Z,84.30
2017-09-28T06:54:50.363Z,84.40
2017-09-28T06:57:19.452Z,84.70
2017-09-28T06:59:47.853Z,84.40
2017-09-28T07:02:16.171Z,84.60
2017-09-28T07:04:45.256Z,85.00
2017-09-28T07:07:14.343Z,85.20
2017-09-28T07:09:42.657Z,85.20
2017-09-28T07:12:11.736Z,85.60
2017-09-28T07:14:40.824Z,86.40
2017-09-28T07:17:09.901Z,85.80
2017-09-28T07:19:38.221Z,85.80
2017-09-28T07:22:07.336Z,86.20
2017-09-28T07:24:36.405Z,86.40
2017-09-28T07:27:04.753Z,86.40
2017-09-28T07:29:33.060Z,86.50
2017-09-28T07:32:01.375Z,86.60
2017-09-28T07:34:30.485Z,86.70
2017-09-28T07:36:58.806Z,86.70
2017-09-28T07:39:27.141Z,86.80
2017-09-28T07:41:56.264Z,86.90
2017-09-28T07:44:24.567Z,86.80
2017-09-28T07:46:52.883Z,87.00
2017-09-28T07:49:21.212Z,87.00
2017-09-28T07:51:49.537Z,87.10
2017-09-28T07:54:17.857Z,87.10
2017-09-28T07:56:46.171Z,87.20
2017-09-28T07:59:14.473Z,87.20
2017-09-28T08:01:42.806Z,87.30
2017-09-28T08:04:11.117Z,87.30
2017-09-28T08:06:39.429Z,87.40
2017-09-28T08:09:07.757Z,87.40
2017-09-28T08:11:36.072Z,87.50
2017-09-28T08:14:04.393Z,87.40
2017-09-28T08:16:33.710Z,87.40
2017-09-28T08:19:02.777Z,87.40
2017-09-28T08:21:31.091Z,87.50
2017-09-28T08:24:00.159Z,87.50
2017-09-28T08:26:28.594Z,87.50
2017-09-28T08:28:56.933Z,87.50
2017-09-28T08:31:25.249Z,87.50
2017-09-28T08:33:53.568Z,87.50
2017-09-28T08:36:21.894Z,87.30
2017-09-28T08:38:51.654Z,87.30
2017-09-28T08:41:19.970Z,87.30
2017-09-28T08:43:48.309Z,87.40
2017-09-28T08:46:16.606Z,87.30
2017-09-28T08:48:44.910Z,87.50
2017-09-28T08:51:13.299Z,87.50
2017-09-28T08:53:41.626Z,87.50
2017-09-28T08:56:09.938Z,87.50
2017-09-28T08:58:38.258Z,87.50
2017-09-28T09:01:07.326Z,87.60
2017-09-28T09:03:35.673Z,87.60
2017-09-28T09:06:03.970Z,87.40
2017-09-28T09:08:32.275Z,87.40
2017-09-28T09:11:00.613Z,87.40
2017-09-28T09:13:28.931Z,87.50
2017-09-28T09:15:57.269Z,87.70
2017-09-28T09:18:25.603Z,87.70
2017-09-28T09:20:53.901Z,87.70
2017-09-28T09:23:22.212Z,87.90
2017-09-28T09:25:50.530Z,88.30
2017-09-28T09:28:18.934Z,88.20
2017-09-28T09:30:47.267Z,88.10
2017-09-28T09:33:15.568Z,88.00
2017-09-28T09:35:43.893Z,87.90
2017-09-28T09:38:13.008Z,87.90
2017-09-28T09:40:42.147Z,87.60
2017-09-28T09:43:10.478Z,87.60
2017-09-28T09:45:39.107Z,87.70
2017-09-28T09:48:07.426Z,87.60
2017-09-28T09:50:35.759Z,88.50
2017-09-28T09:53:04.087Z,87.80
2017-09-28T09:55:32.400Z,87.90
2017-09-28T09:58:01.494Z,87.90
2017-09-28T10:00:29.806Z,87.80
2017-09-28T10:02:58.104Z,87.80
2017-09-28T10:05:26.428Z,87.60
2017-09-28T10:08:02.050Z,87.20
2017-09-28T10:10:33.960Z,87.10
2017-09-28T10:13:16.485Z,86.60
2017-09-28T10:15:51.952Z,86.50
2017-09-28T10:18:20.276Z,86.50
2017-09-28T10:20:48.595Z,86.40
2017-09-28T10:23:16.917Z,86.30
2017-09-28T10:25:45.260Z,86.10
2017-09-28T10:28:13.592Z,85.90
2017-09-28T10:30:41.894Z,85.30
2017-09-28T10:33:10.982Z,84.30
2017-09-28T10:35:39.280Z,84.10
2017-09-28T10:38:08.358Z,83.30
2017-09-28T10:40:36.846Z,83.20
2017-09-28T10:43:05.195Z,83.20
2017-09-28T10:45:33.660Z,82.70
2017-09-28T10:48:01.970Z,82.50
2017-09-28T10:50:30.278Z,82.10
2017-09-28T10:52:58.608Z,81.60
2017-09-28T10:55:27.024Z,81.40
2017-09-28T10:57:55.326Z,81.20
2017-09-28T11:00:23.635Z,80.60
2017-09-28T11:02:51.953Z,80.10
2017-09-28T11:05:20.276Z,79.80
2017-09-28T11:07:48.597Z,79.40
2017-09-28T11:10:16.912Z,79.60
2017-09-28T11:12:45.447Z,79.00
2017-09-28T11:15:14.528Z,78.10
2017-09-28T11:17:43.599Z,78.70
2017-09-28T11:20:11.926Z,78.70
2017-09-28T11:22:41.022Z,77.80
2017-09-28T11:25:10.118Z,77.80
2017-09-28T11:27:39.198Z,77.40
2017-09-28T11:30:07.493Z,77.30
2017-09-28T11:32:36.593Z,76.80
2017-09-28T11:35:05.656Z,76.60
2017-09-28T11:37:33.964Z,76.60
2017-09-28T11:40:02.281Z,76.50
2017-09-28T11:42:30.594Z,76.50
2017-09-28T11:44:58.913Z,76.40
2017-09-28T11:47:27.973Z,76.40
2017-09-28T11:49:56.295Z,76.30
2017-09-28T11:52:25.370Z,76.90
2017-09-28T11:54:54.465Z,76.20
2017-09-28T11:57:22.809Z,76.20
2017-09-28T11:59:51.124Z,75.90
2017-09-28T12:02:19.463Z,75.70
2017-09-28T12:04:47.764Z,75.40
2017-09-28T12:07:16.074Z,75.50
2017-09-28T12:09:44.404Z,75.20
2017-09-28T12:12:12.716Z,74.90
2017-09-28T12:14:41.025Z,75.10
2017-09-28T12:17:09.352Z,74.90
2017-09-28T12:19:37.671Z,74.50
2017-09-28T12:22:05.980Z,74.10
2017-09-28T12:24:34.315Z,73.90
2017-09-28T12:27:02.708Z,73.90
2017-09-28T12:29:31.213Z,73.80
2017-09-28T12:31:59.525Z,73.50
2017-09-28T12:34:28.593Z,74.40
2017-09-28T12:36:56.911Z,73.40
2017-09-28T12:39:25.993Z,73.00
2017-09-28T12:41:54.317Z,72.90
2017-09-28T12:44:22.621Z,72.90
2017-09-28T12:46:50.920Z,72.90
2017-09-28T12:49:19.245Z,72.40
2017-09-28T12:51:48.969Z,72.10
2017-09-28T12:54:17.295Z,72.10
2017-09-28T12:56:45.630Z,72.20
2017-09-28T12:59:13.931Z,72.00
2017-09-28T13:01:42.266Z,71.90
2017-09-28T13:04:11.362Z,71.60
2017-09-28T13:06:39.695Z,71.50
2017-09-28T13:09:08.011Z,72.00
2017-09-28T13:11:36.317Z,71.70
2017-09-28T13:14:05.467Z,71.60
2017-09-28T13:16:33.780Z,71.50
2017-09-28T13:19:02.094Z,71.10
2017-09-28T13:21:31.192Z,70.90
2017-09-28T13:24:00.275Z,71.00
2017-09-28T13:26:28.597Z,70.80
2017-09-28T13:28:56.975Z,70.80
2017-09-28T13:31:25.280Z,70.90
2017-09-28T13:33:53.593Z,70.80
2017-09-28T13:36:21.926Z,71.00
2017-09-28T13:38:50.249Z,71.00
2017-09-28T13:41:18.609Z,70.80
2017-09-28T13:43:46.916Z,70.90
2017-09-28T13:46:15.245Z,70.90
2017-09-28T13:48:43.554Z,71.10
2017-09-28T13:51:11.886Z,71.30
2017-09-28T13:53:40.983Z,71.30
2017-09-28T13:56:10.065Z,71.40
2017-09-28T13:58:38.374Z,71.40
2017-09-28T14:01:07.472Z,71.80
2017-09-28T14:03:36.548Z,71.80
2017-09-28T14:06:04.860Z,71.70
2017-09-28T14:08:33.192Z,71.90
2017-09-28T14:11:01.505Z,71.80
2017-09-28T14:13:30.580Z,71.50
2017-09-28T14:15:59.007Z,71.40
2017-09-28T14:18:27.345Z,71.50
2017-09-28T14:20:55.670Z,71.70
2017-09-28T14:23:23.996Z,71.50
2017-09-28T14:25:52.307Z,71.40
2017-09-28T14:28:20.630Z,71.40
2017-09-28T14:30:49.178Z,71.50
2017-09-28T14:33:17.482Z,71.70
2017-09-28T14:35:45.801Z,71.80
2017-09-28T14:38:14.131Z,71.80
2017-09-28T14:40:43.248Z,72.20
2017-09-28T14:43:11.545Z,72.20
2017-09-28T14:45:39.871Z,72.20
2017-09-28T14:48:08.206Z,72.50
2017-09-28T14:50:37.352Z,72.40
2017-09-28T14:53:05.677Z,72.40
2017-09-28T14:55:33.968Z,72.60
2017-09-28T14:58:02.283Z,72.70
2017-09-28T15:00:30.599Z,73.00
2017-09-28T15:02:59.677Z,73.50
2017-09-28T15:05:27.998Z,73.00
2017-09-28T15:07:57.113Z,73.00
2017-09-28T15:10:25.439Z,72.90
2017-09-28T15:12:53.784Z,72.90
2017-09-28T15:15:22.092Z,73.00
2017-09-28T15:17:50.424Z,73.10
2017-09-28T15:20:18.740Z,73.10
2017-09-28T15:22:47.119Z,73.00
2017-09-28T15:25:15.434Z,73.00
2017-09-28T15:27:43.754Z,73.20
2017-09-28T15:30:12.098Z,73.30
2017-09-28T15:32:40.432Z,73.30
2017-09-28T15:35:08.749Z,73.20
2017-09-28T15:37:37.051Z,73.10
2017-09-28T15:40:05.378Z,73.90
2017-09-28T15:42:33.704Z,74.20
2017-09-28T15:45:02.021Z,75.10
2017-09-28T15:47:31.095Z,76.00
2017-09-28T15:49:59.434Z,76.00
2017-09-28T15:52:27.789Z,76.70
2017-09-28T15:54:56.068Z,77.00
2017-09-28T15:57:25.164Z,77.80
2017-09-28T15:59:54.221Z,78.10
2017-09-28T16:02:22.521Z,78.00
2017-09-28T16:04:50.863Z,78.20
2017-09-28T16:07:19.177Z,78.00
2017-09-28T16:09:47.494Z,78.00
2017-09-28T16:12:15.824Z,78.20
2017-09-28T16:14:44.130Z,78.30
2017-09-28T16:17:12.429Z,78.10
2017-09-28T16:19:41.523Z,78.20
2017-09-28T16:22:10.654Z,78.20
2017-09-28T16:24:38.991Z,78.20
2017-09-28T16:27:07.304Z,78.40
2017-09-28T16:29:35.610Z,78.70
2017-09-28T16:32:03.927Z,79.10
2017-09-28T16:34:32.266Z,79.50
2017-09-28T16:37:00.571Z,79.70
2017-09-28T16:39:28.863Z,80.00
2017-09-28T16:41:57.182Z,80.40
2017-09-28T16:44:26.276Z,80.80
2017-09-28T16:46:55.379Z,80.90
2017-09-28T16:49:24.482Z,81.00
2017-09-28T16:51:53.567Z,81.20
2017-09-28T16:54:22.828Z,81.90
2017-09-28T16:56:51.141Z,81.40
2017-09-28T16:59:20.246Z,81.80
2017-09-28T17:01:50.053Z,82.00
2017-09-28T17:04:18.340Z,81.90
2017-09-28T17:06:46.666Z,82.00
2017-09-28T17:09:14.993Z,81.80
2017-09-28T17:11:43.310Z,82.30
2017-09-28T17:14:12.412Z,83.40
2017-09-28T17:16:41.520Z,84.00
2017-09-28T17:19:09.835Z,84.00
2017-09-28T17:21:38.135Z,84.40
2017-09-28T17:24:06.460Z,84.70
2017-09-28T17:26:35.540Z,85.90
2017-09-28T17:29:04.607Z,86.50
2017-09-28T17:31:32.924Z,86.50
2017-09-28T17:34:01.997Z,86.70
2017-09-28T17:36:30.437Z,86.60
2017-09-28T17:38:58.773Z,86.90
2017-09-28T17:41:27.106Z,87.20
2017-09-28T17:43:55.421Z,87.20
2017-09-28T17:46:23.735Z,87.30
2017-09-28T17:48:52.817Z,88.10
2017-09-28T17:51:21.133Z,87.40
2017-09-28T17:53:49.438Z,87.60
2017-09-28T17:56:17.751Z,87.70
2017-09-28T17:58:46.097Z,87.80
2017-09-28T18:01:14.404Z,88.90
2017-09-28T18:03:42.707Z,88.20
2017-09-28T18:06:11.022Z,88.40
2017-09-28T18:08:39.334Z,88.50
2017-09-28T18:11:07.673Z,88.50
2017-09-28T18:13:36.750Z,88.30
2017-09-28T18:16:05.817Z,88.30
2017-09-28T18:18:35.171Z,88.20
2017-09-28T18:21:04.261Z,88.10
2017-09-28T18:23:32.570Z,88.10
2017-09-28T18:26:00.882Z,88.10
2017-09-28T18:28:29.199Z,88.20
2017-09-28T18:30:57.528Z,88.20
2017-09-28T18:33:25.829Z,88.20
2017-09-28T18:35:54.185Z,88.40
2017-09-28T18:38:22.483Z,88.40
2017-09-28T18:40:50.785Z,88.40
2017-09-28T18:43:19.112Z,88.20
2017-09-28T18:45:48.183Z,88.20
2017-09-28T18:48:16.487Z,88.20
2017-09-28T18:50:45.587Z,88.30
2017-09-28T18:53:14.676Z,88.20
2017-09-28T18:55:42.990Z,88.20
2017-09-28T18:58:11.293Z,89.00
2017-09-28T19:00:39.614Z,87.90
2017-09-28T19:03:08.714Z,87.80
2017-09-28T19:05:37.036Z,87.80
2017-09-28T19:08:05.341Z,87.90
2017-09-28T19:10:33.667Z,88.00
2017-09-28T19:13:01.981Z,88.10
2017-09-28T19:15:30.299Z,88.90
2017-09-28T19:17:58.613Z,89.00
2017-09-28T19:20:27.294Z,88.10
2017-09-28T19:22:55.613Z,88.00
2017-09-28T19:25:23.929Z,88.20
2017-09-28T19:27:52.229Z,88.30
2017-09-28T19:30:20.573Z,88.20
2017-09-28T19:32:48.868Z,88.20
2017-09-28T19:35:17.883Z,88.10
2017-09-28T19:37:46.207Z,88.10
2017-09-28T19:40:15.282Z,88.10
2017-09-28T19:42:43.597Z,88.10
2017-09-28T19:45:11.923Z,88.10
2017-09-28T19:47:40.239Z,88.00
2017-09-28T19:50:08.557Z,88.00
2017-09-28T19:52:37.582Z,87.90
2017-09-28T19:55:05.889Z,87.80
2017-09-28T19:57:34.219Z,87.80
2017-09-28T20:00:02.538Z,87.60
2017-09-28T20:02:30.836Z,87.80
2017-09-28T20:04:59.158Z,87.70
2017-09-28T20:07:27.493Z,87.80
2017-09-28T20:09:55.811Z,87.80
2017-09-28T20:12:24.140Z,87.70
2017-09-28T20:14:52.464Z,87.60
2017-09-28T20:17:21.539Z,87.60
2017-09-28T20:19:50.626Z,87.60
2017-09-28T20:22:18.935Z,87.50
2017-09-28T20:24:47.252Z,87.70
2017-09-28T20:27:15.583Z,87.70
2017-09-28T20:29:45.500Z,87.60
2017-09-28T20:32:13.805Z,87.50
2017-09-28T20:34:42.893Z,87.80
2017-09-28T20:37:11.215Z,87.70
2017-09-28T20:39:39.525Z,87.90
2017-09-28T20:42:07.837Z,87.90
2017-09-28T20:44:36.159Z,87.80
2017-09-28T20:47:04.462Z,87.70
2017-09-28T20:49:32.775Z,87.50
2017-09-28T20:52:01.110Z,88.50
2017-09-28T20:54:30.019Z,87.50
2017-09-28T20:56:58.331Z,87.50
2017-09-28T20:59:27.412Z,87.70
2017-09-28T21:01:55.766Z,87.70
2017-09-28T21:04:24.125Z,87.80
2017-09-28T21:06:53.213Z,87.60
2017-09-28T21:09:22.325Z,87.50
2017-09-28T21:11:51.398Z,87.60
2017-09-28T21:14:19.710Z,87.50
2017-09-28T21:16:48.025Z,87.50
2017-09-28T21:19:16.371Z,87.60
2017-09-28T21:21:44.666Z,87.60
2017-09-28T21:24:12.965Z,87.30
2017-09-28T21:26:41.277Z,87.40
2017-09-28T21:29:09.602Z,87.40
2017-09-28T21:31:37.899Z,87.50
2017-09-28T21:34:06.244Z,87.40
2017-09-28T21:36:35.335Z,87.50
2017-09-28T21:39:03.649Z,87.40
2017-09-28T21:41:31.959Z,87.40
2017-09-28T21:44:00.340Z,87.40
2017-09-28T21:46:28.642Z,87.60
2017-09-28T21:48:56.945Z,87.60
2017-09-28T21:51:26.032Z,88.70
2017-09-28T21:53:54.545Z,87.50
2017-09-28T21:56:23.612Z,87.40
2017-09-28T21:58:51.920Z,88.20
2017-09-28T22:01:20.986Z,87.60
2017-09-28T22:03:49.309Z,87.60
2017-09-28T22:06:18.373Z,87.60
2017-09-28T22:08:46.682Z,87.60
2017-09-28T22:11:15.789Z,87.90
2017-09-28T22:13:44.859Z,88.00
2017-09-28T22:16:13.168Z,88.00
2017-09-28T22:18:42.241Z,88.20
2017-09-28T22:21:10.589Z,88.10
2017-09-28T22:23:38.959Z,88.20
2017-09-28T22:26:07.281Z,88.40
2017-09-28T22:28:35.614Z,88.60
2017-09-28T22:31:03.940Z,88.70
2017-09-28T22:33:32.256Z,88.80
2017-09-28T22:36:01.325Z,88.70
2017-09-28T22:38:29.625Z,88.70
2017-09-28T22:40:57.937Z,88.70
2017-09-28T22:43:26.241Z,88.80
2017-09-28T22:45:54.542Z,88.70
2017-09-28T22:48:22.874Z,88.70
2017-09-28T22:50:51.940Z,88.80
2017-09-28T22:53:20.257Z,88.80
2017-09-28T22:55:48.571Z,88.90
2017-09-28T22:58:16.902Z,89.00
2017-09-28T23:00:45.970Z,89.10
2017-09-28T23:03:14.274Z,89.00
2017-09-28T23:05:42.595Z,89.00
2017-09-28T23:08:10.906Z,89.00
2017-09-28T23:10:39.219Z,89.00
2017-09-28T23:13:08.230Z,88.90
2017-09-28T23:15:37.314Z,88.70
2017-09-28T23:18:05.642Z,88.70
2017-09-28T23:20:33.964Z,89.70
2017-09-28T23:23:02.262Z,88.60
2017-09-28T23:25:30.591Z,88.60
2017-09-28T23:27:58.902Z,88.70
2017-09-28T23:30:27.195Z,88.60
2017-09-28T23:32:56.346Z,88.40
2017-09-28T23:35:24.704Z,88.50
2017-09-28T23:37:53.802Z,88.70
2017-09-28T23:40:22.864Z,88.90
2017-09-28T23:42:51.184Z,88.80
2017-09-28T23:45:20.280Z,88.80
2017-09-28T23:47:49.472Z,88.70
2017-09-28T23:50:19.378Z,88.90
2017-09-28T23:52:47.701Z,88.80
2017-09-28T23:55:16.026Z,88.70
2017-09-28T23:57:44.329Z,88.80
